sensor_id;sensor_type;location;lat;lon;timestamp;temperature;humidity
10314;DHT22;5202;49.138;10.090;2023-08-31T00:03:33;13.10;99.90
10314;DHT22;5202;49.138;10.090;2023-08-31T00:06:02;13.20;99.90
10314;DHT22;5202;49.138;10.090;2023-08-31T00:08:31;13.10;99.90
10314;DHT22;5202;49.138;10.090;2023-08-31T00:11:00;13.10;99.90
10314;DHT22;5202;49.138;10.090;2023-08-31T00:13:29;13.10;99.90
10314;DHT22;5202;49.138;10.090;2023-08-31T00:15:58;13.10;99.90
10314;DHT22;5202;49.138;10.090;2023-08-31T00:18:26;13.10;99.90
10314;DHT22;5202;49.138;10.090;2023-08-31T00:20:57;13.10;99.90
10314;DHT22;5202;49.138;10.090;2023-08-31T00:23:25;13.10;99.90
10314;DHT22;5202;49.138;10.090;2023-08-31T00:25:53;13.10;99.90
10314;DHT22;5202;49.138;10.090;2023-08-31T00:28:24;13.10;99.90
10314;DHT22;5202;49.138;10.090;2023-08-31T00:30:54;13.20;99.90
10314;DHT22;5202;49.138;10.090;2023-08-31T00:33:25;13.20;99.90
10314;DHT22;5202;49.138;10.090;2023-08-31T00:35:54;13.20;99.90
10314;DHT22;5202;49.138;10.090;2023-08-31T00:38:24;13.20;99.90
10314;DHT22;5202;49.138;10.090;2023-08-31T00:40:53;13.10;99.90
10314;DHT22;5202;49.138;10.090;2023-08-31T00:43:21;13.20;99.90
10314;DHT22;5202;49.138;10.090;2023-08-31T00:45:52;13.10;99.90
10314;DHT22;5202;49.138;10.090;2023-08-31T00:48:24;13.20;99.90
10314;DHT22;5202;49.138;10.090;2023-08-31T00:50:54;13.20;99.90
10314;DHT22;5202;49.138;10.090;2023-08-31T00:53:24;13.10;99.90
10314;DHT22;5202;49.138;10.090;2023-08-31T00:55:53;13.10;99.90
10314;DHT22;5202;49.138;10.090;2023-08-31T00:58:21;13.10;99.90
10314;DHT22;5202;49.138;10.090;2023-08-31T01:00:58;13.00;99.90
10314;DHT22;5202;49.138;10.090;2023-08-31T01:03:37;13.00;99.90
10314;DHT22;5202;49.138;10.090;2023-08-31T01:06:15;12.90;99.90
10314;DHT22;5202;49.138;10.090;2023-08-31T01:08:55;12.90;99.90
10314;DHT22;5202;49.138;10.090;2023-08-31T01:11:31;12.90;99.90
10314;DHT22;5202;49.138;10.090;2023-08-31T01:14:11;12.90;99.90
10314;DHT22;5202;49.138;10.090;2023-08-31T01:16:47;12.80;99.90
10314;DHT22;5202;49.138;10.090;2023-08-31T01:22:13;12.80;99.90
10314;DHT22;5202;49.138;10.090;2023-08-31T01:24:47;12.70;99.90
10314;DHT22;5202;49.138;10.090;2023-08-31T01:27:16;12.60;99.90
10314;DHT22;5202;49.138;10.090;2023-08-31T01:29:45;12.60;99.90
10314;DHT22;5202;49.138;10.090;2023-08-31T01:32:13;12.60;99.90
10314;DHT22;5202;49.138;10.090;2023-08-31T01:34:42;12.50;99.90
10314;DHT22;5202;49.138;10.090;2023-08-31T01:37:17;12.60;99.90
10314;DHT22;5202;49.138;10.090;2023-08-31T01:39:56;12.60;99.90
10314;DHT22;5202;49.138;10.090;2023-08-31T01:42:28;12.60;99.90
10314;DHT22;5202;49.138;10.090;2023-08-31T01:44:57;12.60;99.90
10314;DHT22;5202;49.138;10.090;2023-08-31T01:47:27;12.50;99.90
10314;DHT22;5202;49.138;10.090;2023-08-31T01:49:55;12.50;99.90
10314;DHT22;5202;49.138;10.090;2023-08-31T01:52:24;12.50;99.90
10314;DHT22;5202;49.138;10.090;2023-08-31T01:54:54;12.40;99.90
10314;DHT22;5202;49.138;10.090;2023-08-31T01:57:22;12.40;99.90
10314;DHT22;5202;49.138;10.090;2023-08-31T02:00:14;12.40;99.90
10314;DHT22;5202;49.138;10.090;2023-08-31T02:02:46;12.40;99.90
10314;DHT22;5202;49.138;10.090;2023-08-31T02:05:18;12.30;99.90
10314;DHT22;5202;49.138;10.090;2023-08-31T02:07:47;12.30;99.90
10314;DHT22;5202;49.138;10.090;2023-08-31T02:10:17;12.30;99.90
10314;DHT22;5202;49.138;10.090;2023-08-31T02:12:45;12.30;99.90
10314;DHT22;5202;49.138;10.090;2023-08-31T02:15:14;12.30;99.90
10314;DHT22;5202;49.138;10.090;2023-08-31T02:17:42;12.30;99.90
10314;DHT22;5202;49.138;10.090;2023-08-31T02:20:12;12.30;99.90
10314;DHT22;5202;49.138;10.090;2023-08-31T02:22:41;12.30;99.90
10314;DHT22;5202;49.138;10.090;2023-08-31T02:25:09;12.20;99.90
10314;DHT22;5202;49.138;10.090;2023-08-31T02:27:39;12.20;99.90
10314;DHT22;5202;49.138;10.090;2023-08-31T02:30:08;12.20;99.90
10314;DHT22;5202;49.138;10.090;2023-08-31T02:32:37;12.20;99.90
10314;DHT22;5202;49.138;10.090;2023-08-31T02:35:08;12.10;99.90
10314;DHT22;5202;49.138;10.090;2023-08-31T02:37:36;12.10;99.90
10314;DHT22;5202;49.138;10.090;2023-08-31T02:40:05;12.00;99.90
10314;DHT22;5202;49.138;10.090;2023-08-31T02:42:35;12.00;99.90
10314;DHT22;5202;49.138;10.090;2023-08-31T02:45:06;12.00;99.90
10314;DHT22;5202;49.138;10.090;2023-08-31T02:47:34;11.90;99.90
10314;DHT22;5202;49.138;10.090;2023-08-31T02:50:04;11.90;99.90
10314;DHT22;5202;49.138;10.090;2023-08-31T02:52:33;11.90;99.90
10314;DHT22;5202;49.138;10.090;2023-08-31T02:55:01;11.90;99.90
10314;DHT22;5202;49.138;10.090;2023-08-31T02:57:30;12.00;99.90
10314;DHT22;5202;49.138;10.090;2023-08-31T02:59:58;12.00;99.90
10314;DHT22;5202;49.138;10.090;2023-08-31T03:02:30;12.00;99.90
10314;DHT22;5202;49.138;10.090;2023-08-31T03:04:59;12.00;99.90
10314;DHT22;5202;49.138;10.090;2023-08-31T03:07:28;12.00;99.90
10314;DHT22;5202;49.138;10.090;2023-08-31T03:09:57;12.00;99.90
10314;DHT22;5202;49.138;10.090;2023-08-31T03:12:25;12.00;99.90
10314;DHT22;5202;49.138;10.090;2023-08-31T03:14:53;12.00;99.90
10314;DHT22;5202;49.138;10.090;2023-08-31T03:17:22;12.00;99.90
10314;DHT22;5202;49.138;10.090;2023-08-31T03:19:53;12.00;99.90
10314;DHT22;5202;49.138;10.090;2023-08-31T03:22:21;12.00;99.90
10314;DHT22;5202;49.138;10.090;2023-08-31T03:24:49;11.90;99.90
10314;DHT22;5202;49.138;10.090;2023-08-31T03:27:18;12.00;99.90
10314;DHT22;5202;49.138;10.090;2023-08-31T03:29:47;11.90;99.90
10314;DHT22;5202;49.138;10.090;2023-08-31T03:32:15;11.90;99.90
10314;DHT22;5202;49.138;10.090;2023-08-31T03:34:44;11.90;99.90
10314;DHT22;5202;49.138;10.090;2023-08-31T03:37:14;11.90;99.90
10314;DHT22;5202;49.138;10.090;2023-08-31T03:39:42;11.90;99.90
10314;DHT22;5202;49.138;10.090;2023-08-31T03:42:10;12.00;99.90
10314;DHT22;5202;49.138;10.090;2023-08-31T03:44:39;11.90;99.90
10314;DHT22;5202;49.138;10.090;2023-08-31T03:47:07;11.90;99.90
10314;DHT22;5202;49.138;10.090;2023-08-31T03:49:36;11.90;99.90
10314;DHT22;5202;49.138;10.090;2023-08-31T03:52:06;11.90;99.90
10314;DHT22;5202;49.138;10.090;2023-08-31T03:54:37;11.90;99.90
10314;DHT22;5202;49.138;10.090;2023-08-31T03:57:05;12.00;99.90
10314;DHT22;5202;49.138;10.090;2023-08-31T03:59:33;12.10;99.90
10314;DHT22;5202;49.138;10.090;2023-08-31T04:02:02;12.10;99.90
10314;DHT22;5202;49.138;10.090;2023-08-31T04:04:32;12.10;99.90
10314;DHT22;5202;49.138;10.090;2023-08-31T04:07:01;12.10;99.90
10314;DHT22;5202;49.138;10.090;2023-08-31T04:09:31;12.10;99.90
10314;DHT22;5202;49.138;10.090;2023-08-31T04:12:01;12.10;99.90
10314;DHT22;5202;49.138;10.090;2023-08-31T04:14:30;12.10;99.90
10314;DHT22;5202;49.138;10.090;2023-08-31T04:16:59;12.10;99.90
10314;DHT22;5202;49.138;10.090;2023-08-31T04:19:27;12.10;99.90
10314;DHT22;5202;49.138;10.090;2023-08-31T04:21:55;12.00;99.90
10314;DHT22;5202;49.138;10.090;2023-08-31T04:24:24;12.00;99.90
10314;DHT22;5202;49.138;10.090;2023-08-31T04:26:52;11.90;99.90
10314;DHT22;5202;49.138;10.090;2023-08-31T04:29:22;11.90;99.90
10314;DHT22;5202;49.138;10.090;2023-08-31T04:31:50;11.90;99.90
10314;DHT22;5202;49.138;10.090;2023-08-31T04:34:18;11.80;99.90
10314;DHT22;5202;49.138;10.090;2023-08-31T04:36:47;11.90;99.90
10314;DHT22;5202;49.138;10.090;2023-08-31T04:39:15;11.80;99.90
10314;DHT22;5202;49.138;10.090;2023-08-31T04:41:43;11.80;99.90
10314;DHT22;5202;49.138;10.090;2023-08-31T04:44:12;11.80;99.90
10314;DHT22;5202;49.138;10.090;2023-08-31T04:46:41;11.70;99.90
10314;DHT22;5202;49.138;10.090;2023-08-31T04:49:10;11.70;99.90
10314;DHT22;5202;49.138;10.090;2023-08-31T04:51:38;11.70;99.90
10314;DHT22;5202;49.138;10.090;2023-08-31T04:54:08;11.70;99.90
10314;DHT22;5202;49.138;10.090;2023-08-31T04:56:39;11.70;99.90
10314;DHT22;5202;49.138;10.090;2023-08-31T04:59:07;11.70;99.90
10314;DHT22;5202;49.138;10.090;2023-08-31T05:01:36;11.80;99.90
10314;DHT22;5202;49.138;10.090;2023-08-31T05:04:06;11.80;99.90
10314;DHT22;5202;49.138;10.090;2023-08-31T05:06:34;11.80;99.90
10314;DHT22;5202;49.138;10.090;2023-08-31T05:09:03;11.80;99.90
10314;DHT22;5202;49.138;10.090;2023-08-31T05:11:33;11.80;99.90
10314;DHT22;5202;49.138;10.090;2023-08-31T05:14:01;11.80;99.90
10314;DHT22;5202;49.138;10.090;2023-08-31T05:16:30;11.70;99.90
10314;DHT22;5202;49.138;10.090;2023-08-31T05:18:59;11.70;99.90
10314;DHT22;5202;49.138;10.090;2023-08-31T05:21:28;11.80;99.90
10314;DHT22;5202;49.138;10.090;2023-08-31T05:23:57;11.90;99.90
10314;DHT22;5202;49.138;10.090;2023-08-31T05:26:25;11.90;99.90
10314;DHT22;5202;49.138;10.090;2023-08-31T05:28:53;11.90;99.90
10314;DHT22;5202;49.138;10.090;2023-08-31T05:31:22;11.90;99.90
10314;DHT22;5202;49.138;10.090;2023-08-31T05:33:51;11.90;99.90
10314;DHT22;5202;49.138;10.090;2023-08-31T05:36:19;12.00;99.90
10314;DHT22;5202;49.138;10.090;2023-08-31T05:38:50;12.00;99.90
10314;DHT22;5202;49.138;10.090;2023-08-31T05:41:19;12.00;99.90
10314;DHT22;5202;49.138;10.090;2023-08-31T05:43:47;12.10;99.90
10314;DHT22;5202;49.138;10.090;2023-08-31T05:46:16;12.10;99.90
10314;DHT22;5202;49.138;10.090;2023-08-31T05:48:45;12.10;99.90
10314;DHT22;5202;49.138;10.090;2023-08-31T05:51:13;12.20;99.90
10314;DHT22;5202;49.138;10.090;2023-08-31T05:53:41;12.20;99.90
10314;DHT22;5202;49.138;10.090;2023-08-31T05:56:11;12.20;99.90
10314;DHT22;5202;49.138;10.090;2023-08-31T05:58:40;12.20;99.90
10314;DHT22;5202;49.138;10.090;2023-08-31T06:01:08;12.20;99.90
10314;DHT22;5202;49.138;10.090;2023-08-31T06:03:39;12.30;99.90
10314;DHT22;5202;49.138;10.090;2023-08-31T06:06:08;12.40;99.90
10314;DHT22;5202;49.138;10.090;2023-08-31T06:08:41;12.40;99.90
10314;DHT22;5202;49.138;10.090;2023-08-31T06:11:11;12.50;99.90
10314;DHT22;5202;49.138;10.090;2023-08-31T06:13:40;12.50;99.90
10314;DHT22;5202;49.138;10.090;2023-08-31T06:16:09;12.50;99.90
10314;DHT22;5202;49.138;10.090;2023-08-31T06:18:37;12.50;99.90
10314;DHT22;5202;49.138;10.090;2023-08-31T06:21:06;12.60;99.90
10314;DHT22;5202;49.138;10.090;2023-08-31T06:23:34;12.60;99.90
10314;DHT22;5202;49.138;10.090;2023-08-31T06:26:02;12.70;99.90
10314;DHT22;5202;49.138;10.090;2023-08-31T06:28:32;12.80;99.90
10314;DHT22;5202;49.138;10.090;2023-08-31T06:31:01;12.80;99.90
10314;DHT22;5202;49.138;10.090;2023-08-31T06:33:29;13.00;99.90
10314;DHT22;5202;49.138;10.090;2023-08-31T06:35:59;13.00;99.90
10314;DHT22;5202;49.138;10.090;2023-08-31T06:38:27;13.00;99.90
10314;DHT22;5202;49.138;10.090;2023-08-31T06:40:55;13.10;99.90
10314;DHT22;5202;49.138;10.090;2023-08-31T06:43:26;13.10;99.90
10314;DHT22;5202;49.138;10.090;2023-08-31T06:45:56;13.00;99.90
10314;DHT22;5202;49.138;10.090;2023-08-31T06:48:44;13.00;99.90
10314;DHT22;5202;49.138;10.090;2023-08-31T06:51:12;13.00;99.90
10314;DHT22;5202;49.138;10.090;2023-08-31T06:53:42;13.10;99.90
10314;DHT22;5202;49.138;10.090;2023-08-31T06:56:11;13.10;99.90
10314;DHT22;5202;49.138;10.090;2023-08-31T06:58:40;13.20;99.90
10314;DHT22;5202;49.138;10.090;2023-08-31T07:01:12;13.30;99.90
10314;DHT22;5202;49.138;10.090;2023-08-31T07:03:41;13.30;99.90
10314;DHT22;5202;49.138;10.090;2023-08-31T07:06:11;13.30;99.90
10314;DHT22;5202;49.138;10.090;2023-08-31T07:08:41;13.30;99.90
10314;DHT22;5202;49.138;10.090;2023-08-31T07:11:12;13.30;99.90
10314;DHT22;5202;49.138;10.090;2023-08-31T07:13:40;13.40;99.90
10314;DHT22;5202;49.138;10.090;2023-08-31T07:16:10;13.40;99.90
10314;DHT22;5202;49.138;10.090;2023-08-31T07:18:39;13.30;99.90
10314;DHT22;5202;49.138;10.090;2023-08-31T07:21:07;13.30;99.90
10314;DHT22;5202;49.138;10.090;2023-08-31T07:23:40;13.20;99.90
10314;DHT22;5202;49.138;10.090;2023-08-31T07:26:08;13.20;99.90
10314;DHT22;5202;49.138;10.090;2023-08-31T07:28:36;13.20;99.90
10314;DHT22;5202;49.138;10.090;2023-08-31T07:31:06;13.20;99.90
10314;DHT22;5202;49.138;10.090;2023-08-31T07:33:36;13.20;99.90
10314;DHT22;5202;49.138;10.090;2023-08-31T07:36:05;13.20;99.90
10314;DHT22;5202;49.138;10.090;2023-08-31T07:38:33;13.30;99.90
10314;DHT22;5202;49.138;10.090;2023-08-31T07:41:02;13.50;99.90
10314;DHT22;5202;49.138;10.090;2023-08-31T07:43:31;13.50;99.90
10314;DHT22;5202;49.138;10.090;2023-08-31T07:45:59;13.60;99.90
10314;DHT22;5202;49.138;10.090;2023-08-31T07:48:28;13.70;99.90
10314;DHT22;5202;49.138;10.090;2023-08-31T07:50:57;13.80;99.90
10314;DHT22;5202;49.138;10.090;2023-08-31T07:53:26;13.90;99.90
10314;DHT22;5202;49.138;10.090;2023-08-31T07:55:56;14.00;99.90
10314;DHT22;5202;49.138;10.090;2023-08-31T07:58:26;14.10;99.90
10314;DHT22;5202;49.138;10.090;2023-08-31T08:00:55;14.00;99.90
10314;DHT22;5202;49.138;10.090;2023-08-31T08:03:24;14.10;99.90
10314;DHT22;5202;49.138;10.090;2023-08-31T08:05:53;14.10;99.90
10314;DHT22;5202;49.138;10.090;2023-08-31T08:08:33;14.10;99.90
10314;DHT22;5202;49.138;10.090;2023-08-31T08:11:01;14.20;99.90
10314;DHT22;5202;49.138;10.090;2023-08-31T08:13:31;14.30;99.90
10314;DHT22;5202;49.138;10.090;2023-08-31T08:16:00;14.60;99.90
10314;DHT22;5202;49.138;10.090;2023-08-31T08:18:30;14.80;99.90
10314;DHT22;5202;49.138;10.090;2023-08-31T08:20:59;14.80;99.90
10314;DHT22;5202;49.138;10.090;2023-08-31T08:23:27;14.80;99.90
10314;DHT22;5202;49.138;10.090;2023-08-31T08:25:57;14.90;99.90
10314;DHT22;5202;49.138;10.090;2023-08-31T08:28:26;15.00;99.90
10314;DHT22;5202;49.138;10.090;2023-08-31T08:30:55;15.00;99.90
10314;DHT22;5202;49.138;10.090;2023-08-31T08:33:23;15.00;99.90
10314;DHT22;5202;49.138;10.090;2023-08-31T08:35:56;15.10;99.90
10314;DHT22;5202;49.138;10.090;2023-08-31T08:38:25;15.20;99.90
10314;DHT22;5202;49.138;10.090;2023-08-31T08:40:54;15.20;99.90
10314;DHT22;5202;49.138;10.090;2023-08-31T08:43:25;15.10;99.90
10314;DHT22;5202;49.138;10.090;2023-08-31T08:45:54;15.20;99.90
10314;DHT22;5202;49.138;10.090;2023-08-31T08:48:27;15.20;99.90
10314;DHT22;5202;49.138;10.090;2023-08-31T08:50:56;15.30;99.90
10314;DHT22;5202;49.138;10.090;2023-08-31T08:53:25;15.20;99.90
10314;DHT22;5202;49.138;10.090;2023-08-31T08:55:54;15.30;99.90
10314;DHT22;5202;49.138;10.090;2023-08-31T08:58:24;15.40;99.90
10314;DHT22;5202;49.138;10.090;2023-08-31T09:00:54;15.60;99.90
10314;DHT22;5202;49.138;10.090;2023-08-31T09:03:23;15.70;99.90
10314;DHT22;5202;49.138;10.090;2023-08-31T09:05:52;15.80;99.90
10314;DHT22;5202;49.138;10.090;2023-08-31T09:08:26;15.80;99.90
10314;DHT22;5202;49.138;10.090;2023-08-31T09:10:56;15.80;99.90
10314;DHT22;5202;49.138;10.090;2023-08-31T09:13:28;15.70;99.90
10314;DHT22;5202;49.138;10.090;2023-08-31T09:15:58;15.60;99.90
10314;DHT22;5202;49.138;10.090;2023-08-31T09:18:27;15.60;99.90
10314;DHT22;5202;49.138;10.090;2023-08-31T09:20:56;15.60;99.90
10314;DHT22;5202;49.138;10.090;2023-08-31T09:23:25;15.60;99.50
10314;DHT22;5202;49.138;10.090;2023-08-31T09:25:55;15.40;99.90
10314;DHT22;5202;49.138;10.090;2023-08-31T09:28:25;15.30;98.70
10314;DHT22;5202;49.138;10.090;2023-08-31T09:31:05;15.30;99.10
10314;DHT22;5202;49.138;10.090;2023-08-31T09:33:35;15.10;97.90
10314;DHT22;5202;49.138;10.090;2023-08-31T09:36:06;15.10;98.30
10314;DHT22;5202;49.138;10.090;2023-08-31T09:38:41;15.10;99.00
10314;DHT22;5202;49.138;10.090;2023-08-31T09:41:11;15.10;98.50
10314;DHT22;5202;49.138;10.090;2023-08-31T09:43:41;15.00;98.40
10314;DHT22;5202;49.138;10.090;2023-08-31T09:46:11;15.20;99.20
10314;DHT22;5202;49.138;10.090;2023-08-31T09:48:42;15.50;99.80
10314;DHT22;5202;49.138;10.090;2023-08-31T09:51:11;15.80;98.90
10314;DHT22;5202;49.138;10.090;2023-08-31T09:53:41;15.80;98.70
10314;DHT22;5202;49.138;10.090;2023-08-31T09:56:13;15.70;98.70
10314;DHT22;5202;49.138;10.090;2023-08-31T09:58:48;15.60;99.80
10314;DHT22;5202;49.138;10.090;2023-08-31T10:01:17;15.50;99.80
10314;DHT22;5202;49.138;10.090;2023-08-31T10:04:04;15.50;98.70
10314;DHT22;5202;49.138;10.090;2023-08-31T10:06:40;15.50;97.90
10314;DHT22;5202;49.138;10.090;2023-08-31T10:09:09;15.50;97.70
10314;DHT22;5202;49.138;10.090;2023-08-31T10:11:39;15.70;98.20
10314;DHT22;5202;49.138;10.090;2023-08-31T10:14:10;15.80;98.60
10314;DHT22;5202;49.138;10.090;2023-08-31T10:16:39;15.90;97.70
10314;DHT22;5202;49.138;10.090;2023-08-31T10:19:09;15.90;97.60
10314;DHT22;5202;49.138;10.090;2023-08-31T10:21:37;15.90;97.50
10314;DHT22;5202;49.138;10.090;2023-08-31T10:24:06;16.10;96.90
10314;DHT22;5202;49.138;10.090;2023-08-31T10:26:35;16.20;97.50
10314;DHT22;5202;49.138;10.090;2023-08-31T10:29:03;16.30;96.70
10314;DHT22;5202;49.138;10.090;2023-08-31T10:31:35;16.30;96.20
10314;DHT22;5202;49.138;10.090;2023-08-31T10:34:05;16.20;96.30
10314;DHT22;5202;49.138;10.090;2023-08-31T10:36:38;16.10;95.70
10314;DHT22;5202;49.138;10.090;2023-08-31T10:39:12;16.30;96.80
10314;DHT22;5202;49.138;10.090;2023-08-31T10:41:52;16.60;96.60
10314;DHT22;5202;49.138;10.090;2023-08-31T10:44:22;16.90;95.70
10314;DHT22;5202;49.138;10.090;2023-08-31T10:46:53;17.20;96.00
10314;DHT22;5202;49.138;10.090;2023-08-31T10:49:22;17.30;95.20
10314;DHT22;5202;49.138;10.090;2023-08-31T10:51:55;17.40;94.90
10314;DHT22;5202;49.138;10.090;2023-08-31T10:54:24;17.40;94.20
10314;DHT22;5202;49.138;10.090;2023-08-31T10:57:04;17.30;94.50
10314;DHT22;5202;49.138;10.090;2023-08-31T10:59:50;17.00;94.40
10314;DHT22;5202;49.138;10.090;2023-08-31T11:02:29;16.80;94.90
10314;DHT22;5202;49.138;10.090;2023-08-31T11:05:05;16.90;95.20
10314;DHT22;5202;49.138;10.090;2023-08-31T11:07:35;16.60;94.70
10314;DHT22;5202;49.138;10.090;2023-08-31T11:10:09;16.30;95.90
10314;DHT22;5202;49.138;10.090;2023-08-31T11:12:42;16.20;96.50
10314;DHT22;5202;49.138;10.090;2023-08-31T11:15:12;16.10;96.50
10314;DHT22;5202;49.138;10.090;2023-08-31T11:17:44;16.20;97.00
10314;DHT22;5202;49.138;10.090;2023-08-31T11:20:14;16.20;95.60
10314;DHT22;5202;49.138;10.090;2023-08-31T11:22:46;16.20;96.20
10314;DHT22;5202;49.138;10.090;2023-08-31T11:25:17;16.30;96.50
10314;DHT22;5202;49.138;10.090;2023-08-31T11:27:55;16.40;95.40
10314;DHT22;5202;49.138;10.090;2023-08-31T11:30:25;16.40;94.50
10314;DHT22;5202;49.138;10.090;2023-08-31T11:32:55;16.40;95.00
10314;DHT22;5202;49.138;10.090;2023-08-31T11:35:24;16.50;94.40
10314;DHT22;5202;49.138;10.090;2023-08-31T11:38:02;16.50;94.10
10314;DHT22;5202;49.138;10.090;2023-08-31T11:40:31;16.60;93.90
10314;DHT22;5202;49.138;10.090;2023-08-31T11:42:59;16.50;94.50
10314;DHT22;5202;49.138;10.090;2023-08-31T11:45:28;16.40;94.20
10314;DHT22;5202;49.138;10.090;2023-08-31T11:47:59;16.40;95.50
10314;DHT22;5202;49.138;10.090;2023-08-31T11:50:28;16.80;95.20
10314;DHT22;5202;49.138;10.090;2023-08-31T11:52:56;17.00;95.20
10314;DHT22;5202;49.138;10.090;2023-08-31T11:55:24;17.00;93.90
10314;DHT22;5202;49.138;10.090;2023-08-31T11:57:54;16.80;94.30
10314;DHT22;5202;49.138;10.090;2023-08-31T12:00:24;16.80;94.40
10314;DHT22;5202;49.138;10.090;2023-08-31T12:03:00;16.60;93.70
10314;DHT22;5202;49.138;10.090;2023-08-31T12:05:44;16.50;93.00
10314;DHT22;5202;49.138;10.090;2023-08-31T12:08:13;16.40;93.20
10314;DHT22;5202;49.138;10.090;2023-08-31T12:10:43;16.40;93.40
10314;DHT22;5202;49.138;10.090;2023-08-31T12:13:12;16.70;93.50
10314;DHT22;5202;49.138;10.090;2023-08-31T12:15:41;16.80;93.20
10314;DHT22;5202;49.138;10.090;2023-08-31T12:18:12;17.00;93.50
10314;DHT22;5202;49.138;10.090;2023-08-31T12:20:44;17.00;93.70
10314;DHT22;5202;49.138;10.090;2023-08-31T12:23:12;17.10;92.90
10314;DHT22;5202;49.138;10.090;2023-08-31T12:25:46;17.40;93.50
10314;DHT22;5202;49.138;10.090;2023-08-31T12:28:16;17.50;93.40
10314;DHT22;5202;49.138;10.090;2023-08-31T12:30:47;17.50;93.20
10314;DHT22;5202;49.138;10.090;2023-08-31T12:33:18;17.50;92.40
10314;DHT22;5202;49.138;10.090;2023-08-31T12:35:48;17.50;92.50
10314;DHT22;5202;49.138;10.090;2023-08-31T12:38:17;17.60;92.80
10314;DHT22;5202;49.138;10.090;2023-08-31T12:40:45;17.80;92.70
10314;DHT22;5202;49.138;10.090;2023-08-31T12:43:14;17.90;91.10
10314;DHT22;5202;49.138;10.090;2023-08-31T12:45:43;18.00;91.90
10314;DHT22;5202;49.138;10.090;2023-08-31T12:48:12;18.30;91.20
10314;DHT22;5202;49.138;10.090;2023-08-31T12:50:42;18.40;90.10
10314;DHT22;5202;49.138;10.090;2023-08-31T12:53:10;18.30;90.50
10314;DHT22;5202;49.138;10.090;2023-08-31T12:55:39;18.20;89.70
10314;DHT22;5202;49.138;10.090;2023-08-31T12:58:08;18.20;89.00
10314;DHT22;5202;49.138;10.090;2023-08-31T13:00:36;18.10;88.20
10314;DHT22;5202;49.138;10.090;2023-08-31T13:03:05;18.20;89.70
10314;DHT22;5202;49.138;10.090;2023-08-31T13:05:34;18.50;88.30
10314;DHT22;5202;49.138;10.090;2023-08-31T13:08:05;18.40;84.20
10314;DHT22;5202;49.138;10.090;2023-08-31T13:10:34;18.10;85.90
10314;DHT22;5202;49.138;10.090;2023-08-31T13:13:03;18.00;85.60
10314;DHT22;5202;49.138;10.090;2023-08-31T13:15:32;18.10;87.00
10314;DHT22;5202;49.138;10.090;2023-08-31T13:18:01;18.30;86.60
10314;DHT22;5202;49.138;10.090;2023-08-31T13:20:30;18.50;86.30
10314;DHT22;5202;49.138;10.090;2023-08-31T13:23:01;18.60;88.50
10314;DHT22;5202;49.138;10.090;2023-08-31T13:25:31;18.70;85.70
10314;DHT22;5202;49.138;10.090;2023-08-31T13:28:00;18.60;85.00
10314;DHT22;5202;49.138;10.090;2023-08-31T13:30:30;18.60;85.90
10314;DHT22;5202;49.138;10.090;2023-08-31T13:32:59;18.60;87.00
10314;DHT22;5202;49.138;10.090;2023-08-31T13:35:28;18.60;85.70
10314;DHT22;5202;49.138;10.090;2023-08-31T13:37:56;18.50;86.00
10314;DHT22;5202;49.138;10.090;2023-08-31T13:40:25;18.30;85.30
10314;DHT22;5202;49.138;10.090;2023-08-31T13:42:57;18.10;85.70
10314;DHT22;5202;49.138;10.090;2023-08-31T13:45:29;18.10;85.60
10314;DHT22;5202;49.138;10.090;2023-08-31T13:47:59;18.00;86.80
10314;DHT22;5202;49.138;10.090;2023-08-31T13:50:28;17.90;88.20
10314;DHT22;5202;49.138;10.090;2023-08-31T13:52:56;17.90;88.20
10314;DHT22;5202;49.138;10.090;2023-08-31T13:55:25;17.90;88.50
10314;DHT22;5202;49.138;10.090;2023-08-31T13:57:55;18.20;88.80
10314;DHT22;5202;49.138;10.090;2023-08-31T14:00:24;18.40;89.60
10314;DHT22;5202;49.138;10.090;2023-08-31T14:02:53;18.60;86.80
10314;DHT22;5202;49.138;10.090;2023-08-31T14:05:28;18.50;86.20
10314;DHT22;5202;49.138;10.090;2023-08-31T14:07:56;18.30;85.30
10314;DHT22;5202;49.138;10.090;2023-08-31T14:10:25;18.20;87.10
10314;DHT22;5202;49.138;10.090;2023-08-31T14:12:55;18.10;87.80
10314;DHT22;5202;49.138;10.090;2023-08-31T14:15:23;17.90;88.00
10314;DHT22;5202;49.138;10.090;2023-08-31T14:17:52;17.80;87.90
10314;DHT22;5202;49.138;10.090;2023-08-31T14:20:21;17.90;88.30
10314;DHT22;5202;49.138;10.090;2023-08-31T14:22:50;17.90;89.30
10314;DHT22;5202;49.138;10.090;2023-08-31T14:25:18;18.10;89.50
10314;DHT22;5202;49.138;10.090;2023-08-31T14:27:50;18.10;89.10
10314;DHT22;5202;49.138;10.090;2023-08-31T14:30:20;18.30;88.60
10314;DHT22;5202;49.138;10.090;2023-08-31T14:32:49;18.50;88.80
10314;DHT22;5202;49.138;10.090;2023-08-31T14:35:17;18.40;87.80
10314;DHT22;5202;49.138;10.090;2023-08-31T14:37:46;18.50;88.70
10314;DHT22;5202;49.138;10.090;2023-08-31T14:40:14;18.70;90.00
10314;DHT22;5202;49.138;10.090;2023-08-31T14:42:43;18.70;89.70
10314;DHT22;5202;49.138;10.090;2023-08-31T14:45:11;18.60;88.10
10314;DHT22;5202;49.138;10.090;2023-08-31T14:47:41;18.70;88.80
10314;DHT22;5202;49.138;10.090;2023-08-31T14:50:10;18.80;89.10
10314;DHT22;5202;49.138;10.090;2023-08-31T14:52:38;18.80;89.30
10314;DHT22;5202;49.138;10.090;2023-08-31T14:55:07;18.80;89.40
10314;DHT22;5202;49.138;10.090;2023-08-31T14:57:36;18.70;88.20
10314;DHT22;5202;49.138;10.090;2023-08-31T15:00:10;18.60;89.70
10314;DHT22;5202;49.138;10.090;2023-08-31T15:02:39;18.50;89.60
10314;DHT22;5202;49.138;10.090;2023-08-31T15:05:09;18.50;90.50
10314;DHT22;5202;49.138;10.090;2023-08-31T15:07:40;18.30;90.20
10314;DHT22;5202;49.138;10.090;2023-08-31T15:10:09;18.10;89.90
10314;DHT22;5202;49.138;10.090;2023-08-31T15:12:38;17.90;90.40
10314;DHT22;5202;49.138;10.090;2023-08-31T15:15:08;17.80;90.50
10314;DHT22;5202;49.138;10.090;2023-08-31T15:17:36;17.70;90.70
10314;DHT22;5202;49.138;10.090;2023-08-31T15:20:06;17.70;90.90
10314;DHT22;5202;49.138;10.090;2023-08-31T15:22:37;17.50;91.30
10314;DHT22;5202;49.138;10.090;2023-08-31T15:25:06;17.40;91.60
10314;DHT22;5202;49.138;10.090;2023-08-31T15:27:35;17.50;91.90
10314;DHT22;5202;49.138;10.090;2023-08-31T15:30:04;17.40;91.80
10314;DHT22;5202;49.138;10.090;2023-08-31T15:32:35;17.40;91.80
10314;DHT22;5202;49.138;10.090;2023-08-31T15:35:05;17.30;92.00
10314;DHT22;5202;49.138;10.090;2023-08-31T15:37:35;17.30;92.30
10314;DHT22;5202;49.138;10.090;2023-08-31T15:40:04;17.40;92.10
10314;DHT22;5202;49.138;10.090;2023-08-31T15:42:33;17.30;92.30
10314;DHT22;5202;49.138;10.090;2023-08-31T15:45:02;17.30;92.90
10314;DHT22;5202;49.138;10.090;2023-08-31T15:47:31;17.20;92.90
10314;DHT22;5202;49.138;10.090;2023-08-31T15:50:00;17.20;93.10
10314;DHT22;5202;49.138;10.090;2023-08-31T15:52:29;17.20;93.10